createdAt,value
2018-01-19T00:01:44.121Z,20.65
2018-01-19T00:04:11.549Z,18.50
2018-01-19T00:06:39.005Z,18.42
2018-01-19T00:09:06.556Z,18.02
2018-01-19T00:11:34.002Z,20.35
2018-01-19T00:14:01.493Z,19.92
2018-01-19T00:16:28.946Z,14.57
2018-01-19T00:18:56.396Z,16.70
2018-01-19T00:21:23.950Z,14.90
2018-01-19T00:23:51.375Z,16.90
2018-01-19T00:26:18.870Z,13.60
2018-01-19T00:28:46.438Z,13.77
2018-01-19T00:31:13.866Z,13.98
2018-01-19T00:33:41.294Z,14.30
2018-01-19T00:36:08.799Z,14.77
2018-01-19T00:38:36.234Z,16.35
2018-01-19T00:41:03.714Z,18.77
2018-01-19T00:43:31.149Z,19.95
2018-01-19T00:45:58.590Z,15.60
2018-01-19T00:48:26.165Z,17.30
2018-01-19T00:50:53.643Z,17.75
2018-01-19T00:53:21.216Z,18.23
2018-01-19T00:55:48.746Z,18.07
2018-01-19T00:58:16.286Z,17.45
2018-01-19T01:00:43.733Z,17.12
2018-01-19T01:03:11.316Z,15.13
2018-01-19T01:05:38.781Z,15.85
2018-01-19T01:08:06.333Z,15.48
2018-01-19T01:10:33.789Z,12.25
2018-01-19T01:13:01.240Z,13.02
2018-01-19T01:15:28.701Z,12.45
2018-01-19T01:17:56.141Z,12.50
2018-01-19T01:20:23.617Z,12.80
2018-01-19T01:22:51.071Z,14.93
2018-01-19T01:25:18.502Z,16.85
2018-01-19T01:27:46.209Z,17.60
2018-01-19T01:30:13.647Z,15.85
2018-01-19T01:32:41.218Z,14.85
2018-01-19T01:35:08.762Z,15.40
2018-01-19T01:37:36.198Z,14.05
2018-01-19T01:40:03.626Z,15.57
2018-01-19T01:42:31.850Z,18.23
2018-01-19T01:44:59.286Z,14.38
2018-01-19T01:47:26.770Z,15.75
2018-01-19T01:49:54.201Z,14.30
2018-01-19T01:52:21.770Z,16.20
2018-01-19T01:54:49.201Z,17.83
2018-01-19T01:57:16.647Z,14.80
2018-01-19T01:59:44.141Z,16.35
2018-01-19T02:02:11.582Z,14.23
2018-01-19T02:04:39.054Z,18.42
2018-01-19T02:07:06.511Z,17.02
2018-01-19T02:09:33.977Z,16.85
2018-01-19T02:12:01.435Z,17.27
2018-01-19T02:14:28.877Z,15.18
2018-01-19T02:16:56.317Z,20.73
2018-01-19T02:19:23.789Z,17.27
2018-01-19T02:21:51.226Z,16.30
2018-01-19T02:24:18.653Z,15.07
2018-01-19T02:26:46.857Z,16.35
2018-01-19T02:29:14.286Z,19.20
2018-01-19T02:31:42.505Z,16.85
2018-01-19T02:34:09.961Z,15.15
2018-01-19T02:36:37.410Z,16.50
2018-01-19T02:39:04.849Z,16.80
2018-01-19T02:41:32.290Z,16.95
2018-01-19T02:44:00.523Z,18.70
2018-01-19T02:46:27.965Z,16.35
2018-01-19T02:48:55.437Z,16.85
2018-01-19T02:51:22.874Z,15.98
2018-01-19T02:53:50.332Z,17.92
2018-01-19T02:56:17.872Z,19.92
2018-01-19T02:58:45.297Z,18.05
2018-01-19T03:01:13.517Z,17.42
2018-01-19T03:03:40.957Z,20.20
2018-01-19T03:06:08.438Z,17.75
2018-01-19T03:08:35.902Z,17.17
2018-01-19T03:11:03.329Z,18.40
2018-01-19T03:13:30.785Z,18.15
2018-01-19T03:15:58.213Z,22.35
2018-01-19T03:18:25.665Z,24.60
2018-01-19T03:20:53.951Z,19.30
2018-01-19T03:23:21.438Z,22.43
2018-01-19T03:25:48.897Z,19.77
2018-01-19T03:28:16.441Z,21.17
2018-01-19T03:30:44.693Z,16.62
2018-01-19T03:33:12.125Z,22.03
2018-01-19T03:35:39.694Z,18.27
2018-01-19T03:38:07.919Z,22.65
2018-01-19T03:40:35.377Z,17.95
2018-01-19T03:43:02.814Z,18.73
2018-01-19T03:45:30.289Z,18.80
2018-01-19T03:47:57.745Z,19.93
2018-01-19T03:50:25.205Z,16.53
2018-01-19T03:52:52.639Z,17.00
2018-01-19T03:55:20.064Z,19.20
2018-01-19T03:57:48.261Z,17.83
2018-01-19T04:00:15.749Z,24.58
2018-01-19T04:02:43.186Z,20.48
2018-01-19T04:05:10.618Z,17.12
2018-01-19T04:07:38.109Z,21.02
2018-01-19T04:10:05.538Z,17.95
2018-01-19T04:12:33.021Z,17.35
2018-01-19T04:15:00.453Z,17.70
2018-01-19T04:17:27.897Z,16.05
2018-01-19T04:19:55.389Z,17.60
2018-01-19T04:22:22.921Z,16.12
2018-01-19T04:24:50.405Z,18.30
2018-01-19T04:27:17.854Z,16.73
2018-01-19T04:29:45.285Z,18.67
2018-01-19T04:32:12.734Z,19.05
2018-01-19T04:34:40.929Z,18.05
2018-01-19T04:37:08.368Z,16.55
2018-01-19T04:39:35.788Z,17.77
2018-01-19T04:42:03.313Z,16.98
2018-01-19T04:44:30.779Z,17.98
2018-01-19T04:46:58.438Z,17.33
2018-01-19T04:49:25.917Z,19.35
2018-01-19T04:51:53.466Z,18.23
2018-01-19T04:54:20.901Z,19.62
2018-01-19T04:56:48.342Z,20.12
2018-01-19T04:59:15.785Z,17.00
2018-01-19T05:01:43.225Z,18.65
2018-01-19T05:04:11.457Z,15.68
2018-01-19T05:06:38.925Z,19.25
2018-01-19T05:09:06.365Z,17.65
2018-01-19T05:11:33.801Z,17.55
2018-01-19T05:14:01.255Z,18.65
2018-01-19T05:16:28.733Z,16.55
2018-01-19T05:18:56.190Z,20.67
2018-01-19T05:21:23.634Z,18.33
2018-01-19T05:23:51.086Z,17.02
2018-01-19T05:26:18.518Z,19.75
2018-01-19T05:28:45.951Z,17.40
2018-01-19T05:31:14.186Z,17.03
2018-01-19T05:33:41.619Z,18.25
2018-01-19T05:36:09.097Z,15.60
2018-01-19T05:38:36.537Z,16.70
2018-01-19T05:41:03.974Z,16.17
2018-01-19T05:43:31.474Z,16.92
2018-01-19T05:45:58.925Z,19.75
2018-01-19T05:48:26.367Z,16.20
2018-01-19T05:50:53.842Z,17.23
2018-01-19T05:53:21.377Z,17.05
2018-01-19T05:55:48.849Z,16.10
2018-01-19T05:58:16.305Z,17.25
2018-01-19T06:00:43.851Z,17.17
2018-01-19T06:03:11.342Z,17.48
2018-01-19T06:05:38.777Z,16.75
2018-01-19T06:08:06.222Z,16.70
2018-01-19T06:10:33.657Z,16.67
2018-01-19T06:13:01.146Z,16.30
2018-01-19T06:15:28.573Z,16.30
2018-01-19T06:17:56.006Z,15.60
2018-01-19T06:20:24.210Z,17.58
2018-01-19T06:22:51.638Z,15.40
2018-01-19T06:25:19.847Z,18.08
2018-01-19T06:27:47.301Z,17.52
2018-01-19T06:30:14.747Z,15.98
2018-01-19T06:32:42.178Z,16.83
2018-01-19T06:35:09.666Z,16.73
2018-01-19T06:37:37.163Z,15.73
2018-01-19T06:40:04.707Z,16.95
2018-01-19T06:42:32.182Z,16.42
2018-01-19T06:44:59.806Z,16.30
2018-01-19T06:47:27.288Z,17.65
2018-01-19T06:49:54.730Z,18.67
2018-01-19T06:52:22.311Z,18.83
2018-01-19T06:54:49.771Z,17.10
2018-01-19T06:57:17.221Z,18.27
2018-01-19T06:59:44.702Z,18.15
2018-01-19T07:02:12.915Z,17.50
2018-01-19T07:04:40.403Z,19.67
2018-01-19T07:07:08.045Z,16.15
2018-01-19T07:09:35.498Z,16.92
2018-01-19T07:12:03.160Z,16.52
2018-01-19T07:14:30.642Z,16.33
2018-01-19T07:16:58.081Z,16.40
2018-01-19T07:19:25.529Z,17.50
2018-01-19T07:21:52.954Z,14.93
2018-01-19T07:24:20.455Z,17.93
2018-01-19T07:26:47.922Z,15.85
2018-01-19T07:29:15.449Z,21.12
2018-01-19T07:31:42.868Z,16.80
2018-01-19T07:34:10.418Z,20.75
2018-01-19T07:36:37.878Z,16.40
2018-01-19T07:39:06.115Z,16.80
2018-01-19T07:41:33.567Z,16.97
2018-01-19T07:44:01.030Z,16.90
2018-01-19T07:46:28.565Z,17.70
2018-01-19T07:48:55.981Z,16.03
2018-01-19T07:51:24.175Z,16.40
2018-01-19T07:53:51.682Z,16.60
2018-01-19T07:56:19.131Z,18.00
2018-01-19T07:58:46.583Z,21.98
2018-01-19T08:01:14.042Z,22.10
2018-01-19T08:03:41.488Z,21.65
2018-01-19T08:06:08.961Z,23.50
2018-01-19T08:08:36.413Z,23.30
2018-01-19T08:11:03.962Z,20.30
2018-01-19T08:13:31.397Z,20.40
2018-01-19T08:15:58.862Z,19.63
2018-01-19T08:18:26.335Z,18.40
2018-01-19T08:20:53.793Z,19.67
2018-01-19T08:23:21.235Z,19.60
2018-01-19T08:25:48.683Z,23.03
2018-01-19T08:28:16.098Z,24.27
2018-01-19T08:30:44.335Z,20.23
2018-01-19T08:33:11.782Z,21.27
2018-01-19T08:35:39.252Z,22.75
2018-01-19T08:38:06.721Z,22.52
2018-01-19T08:40:34.146Z,25.33
2018-01-19T08:43:01.626Z,22.83
2018-01-19T08:45:29.152Z,22.48
2018-01-19T08:47:56.637Z,21.95
2018-01-19T08:50:24.077Z,27.48
2018-01-19T08:52:51.518Z,24.50
2018-01-19T08:55:19.007Z,24.75
2018-01-19T08:57:46.538Z,23.98
2018-01-19T09:00:13.949Z,28.47
2018-01-19T09:02:42.268Z,27.10
2018-01-19T09:05:09.750Z,29.00
2018-01-19T09:07:37.194Z,27.27
2018-01-19T09:10:04.652Z,27.30
2018-01-19T09:12:32.074Z,27.87
2018-01-19T09:14:59.518Z,25.52
2018-01-19T09:17:27.855Z,29.00
2018-01-19T09:19:55.407Z,33.63
2018-01-19T09:22:22.966Z,34.75
2018-01-19T09:24:50.415Z,31.40
2018-01-19T09:27:17.840Z,33.33
2018-01-19T09:29:45.283Z,33.53
2018-01-19T09:32:13.553Z,40.70
2018-01-19T09:34:40.993Z,37.88
2018-01-19T09:37:08.440Z,38.85
2018-01-19T09:39:35.973Z,34.58
2018-01-19T09:42:03.430Z,37.60
2018-01-19T09:44:31.173Z,40.35
2018-01-19T09:46:59.326Z,37.72
2018-01-19T09:49:26.758Z,38.00
2018-01-19T09:51:54.993Z,38.95
2018-01-19T09:54:22.437Z,38.63
2018-01-19T09:56:49.867Z,42.50
2018-01-19T09:59:17.306Z,38.95
2018-01-19T10:01:45.519Z,39.38
2018-01-19T10:04:12.953Z,40.12
2018-01-19T10:06:40.410Z,43.13
2018-01-19T10:09:07.861Z,39.63
2018-01-19T10:11:36.091Z,41.08
2018-01-19T10:14:03.642Z,39.37
2018-01-19T10:16:31.078Z,40.25
2018-01-19T10:18:58.572Z,40.45
2018-01-19T10:21:26.017Z,40.00
2018-01-19T10:23:53.445Z,42.53
2018-01-19T10:26:21.106Z,40.43
2018-01-19T10:28:48.596Z,41.95
2018-01-19T10:31:16.184Z,43.75
2018-01-19T10:33:43.681Z,44.85
2018-01-19T10:36:11.145Z,43.45
2018-01-19T10:38:38.622Z,42.08
2018-01-19T10:41:06.061Z,41.97
2018-01-19T10:43:33.522Z,40.50
2018-01-19T10:46:01.841Z,39.78
2018-01-19T10:48:29.293Z,43.47
2018-01-19T10:50:57.535Z,43.60
2018-01-19T10:53:25.116Z,45.67
2018-01-19T10:55:52.737Z,44.97
2018-01-19T10:58:20.167Z,48.20
2018-01-19T11:00:47.805Z,51.25
2018-01-19T11:03:16.087Z,51.50
2018-01-19T11:05:44.301Z,52.53
2018-01-19T11:08:11.855Z,52.78
2018-01-19T11:10:40.006Z,54.03
2018-01-19T11:13:07.512Z,53.20
2018-01-19T11:15:35.027Z,55.40
2018-01-19T11:18:02.603Z,52.20
2018-01-19T11:20:30.263Z,47.28
2018-01-19T11:22:57.800Z,52.50
2018-01-19T11:25:26.013Z,53.60
2018-01-19T11:27:53.463Z,48.28
2018-01-19T11:30:20.986Z,48.10
2018-01-19T11:32:49.206Z,42.97
2018-01-19T11:35:16.661Z,45.10
2018-01-19T11:37:45.030Z,43.95
2018-01-19T11:40:12.490Z,45.03
2018-01-19T11:42:39.928Z,43.00
2018-01-19T11:45:07.365Z,48.67
2018-01-19T11:47:34.811Z,51.88
2018-01-19T11:50:03.243Z,50.92
2018-01-19T11:52:30.666Z,50.17
2018-01-19T11:54:58.116Z,48.22
2018-01-19T11:57:25.556Z,54.00
2018-01-19T11:59:53.782Z,51.25
2018-01-19T12:02:21.214Z,54.15
2018-01-19T12:04:48.694Z,53.78
2018-01-19T12:07:16.130Z,53.63
2018-01-19T12:09:43.615Z,59.83
2018-01-19T12:12:11.045Z,59.60
2018-01-19T12:14:38.499Z,55.37
2018-01-19T12:17:05.925Z,51.63
2018-01-19T12:19:34.335Z,45.70
2018-01-19T12:22:01.774Z,51.30
2018-01-19T12:24:29.370Z,53.40
2018-01-19T12:26:56.799Z,49.90
2018-01-19T12:29:24.280Z,49.55
2018-01-19T12:31:51.729Z,51.47
2018-01-19T12:34:19.158Z,49.92
2018-01-19T12:36:46.593Z,46.67
2018-01-19T12:39:14.832Z,49.30
2018-01-19T12:41:42.416Z,49.55
2018-01-19T12:44:09.933Z,46.63
2018-01-19T12:46:37.365Z,43.97
2018-01-19T12:49:05.139Z,49.10
2018-01-19T12:51:32.628Z,43.60
2018-01-19T12:54:00.073Z,38.40
2018-01-19T12:56:28.133Z,44.30
2018-01-19T12:58:55.606Z,39.45
2018-01-19T13:01:23.161Z,40.20
2018-01-19T13:03:50.621Z,39.45
2018-01-19T13:06:18.166Z,38.08
2018-01-19T13:08:45.619Z,36.53
2018-01-19T13:11:13.050Z,34.50
2018-01-19T13:13:40.530Z,37.60
2018-01-19T13:16:07.976Z,38.28
2018-01-19T13:18:35.459Z,36.22
2018-01-19T13:21:02.898Z,37.60
2018-01-19T13:23:30.361Z,32.13
2018-01-19T13:25:57.834Z,32.42
2018-01-19T13:28:25.258Z,31.35
2018-01-19T13:30:52.704Z,30.85
2018-01-19T13:33:20.489Z,32.08
2018-01-19T13:35:47.969Z,31.75
2018-01-19T13:38:15.393Z,29.83
2018-01-19T13:40:42.966Z,29.27
2018-01-19T13:43:10.424Z,32.55
2018-01-19T13:45:38.004Z,30.55
2018-01-19T13:48:05.439Z,30.50
2018-01-19T13:50:32.889Z,29.70
2018-01-19T13:53:00.354Z,34.65
2018-01-19T13:55:27.926Z,34.03
2018-01-19T13:57:55.345Z,36.30
2018-01-19T14:00:22.907Z,34.00
2018-01-19T14:02:50.318Z,34.15
2018-01-19T14:05:18.683Z,32.85
2018-01-19T14:07:46.246Z,34.67
2018-01-19T14:10:13.685Z,34.50
2018-01-19T14:12:41.121Z,34.17
2018-01-19T14:15:08.550Z,34.65
2018-01-19T14:17:36.047Z,33.13
2018-01-19T14:20:03.498Z,34.63
2018-01-19T14:22:30.931Z,33.10
2018-01-19T14:24:58.386Z,32.10
2018-01-19T14:27:25.846Z,33.30
2018-01-19T14:29:53.258Z,38.58
2018-01-19T14:32:21.505Z,33.97
2018-01-19T14:34:48.957Z,33.20
2018-01-19T14:37:16.413Z,32.97
2018-01-19T14:39:44.138Z,34.80
2018-01-19T14:42:12.329Z,33.53
2018-01-19T14:44:39.785Z,34.17
2018-01-19T14:47:07.282Z,35.17
2018-01-19T14:49:34.717Z,37.03
2018-01-19T14:52:02.173Z,36.00
2018-01-19T14:54:29.630Z,35.05
2018-01-19T14:56:57.086Z,35.25
2018-01-19T14:59:24.654Z,37.47
2018-01-19T15:01:52.326Z,35.08
2018-01-19T15:04:19.861Z,37.33
2018-01-19T15:06:47.530Z,34.95
2018-01-19T15:09:14.962Z,34.10
2018-01-19T15:11:42.431Z,33.60
2018-01-19T15:14:09.900Z,34.97
2018-01-19T15:16:37.454Z,31.33
2018-01-19T15:19:04.889Z,31.75
2018-01-19T15:21:32.346Z,32.00
2018-01-19T15:23:59.902Z,33.95
2018-01-19T15:26:27.369Z,31.85
2018-01-19T15:28:55.156Z,36.72
2018-01-19T15:31:22.591Z,33.93
2018-01-19T15:33:50.050Z,34.60
2018-01-19T15:36:17.491Z,32.10
2018-01-19T15:38:44.958Z,34.35
2018-01-19T15:41:12.426Z,34.65
2018-01-19T15:43:39.939Z,35.50
2018-01-19T15:46:07.377Z,35.40
2018-01-19T15:48:35.713Z,35.03
2018-01-19T15:51:03.178Z,33.97
2018-01-19T15:53:30.734Z,31.55
2018-01-19T15:55:58.288Z,33.95
2018-01-19T15:58:25.724Z,34.10
2018-01-19T16:00:53.202Z,31.33
2018-01-19T16:03:20.636Z,31.37
2018-01-19T16:05:48.114Z,32.78
2018-01-19T16:08:15.574Z,33.65
2018-01-19T16:10:43.238Z,31.60
2018-01-19T16:13:10.768Z,30.63
2018-01-19T16:15:38.249Z,35.10
2018-01-19T16:18:05.818Z,31.87
2018-01-19T16:20:33.276Z,32.72
2018-01-19T16:23:00.715Z,29.48
2018-01-19T16:25:28.176Z,29.87
2018-01-19T16:27:55.616Z,31.20
2018-01-19T16:30:23.168Z,29.27
2018-01-19T16:32:50.618Z,32.40
2018-01-19T16:35:18.180Z,30.83
2018-01-19T16:37:45.634Z,34.20
2018-01-19T16:40:13.122Z,33.67
2018-01-19T16:42:40.580Z,29.15
2018-01-19T16:45:08.026Z,30.50
2018-01-19T16:47:35.474Z,27.43
2018-01-19T16:50:02.934Z,31.00
2018-01-19T16:52:30.392Z,28.20
2018-01-19T16:54:57.845Z,27.00
2018-01-19T16:57:25.288Z,29.60
2018-01-19T16:59:52.705Z,26.98
2018-01-19T17:02:20.928Z,27.20
2018-01-19T17:04:48.410Z,28.00
2018-01-19T17:07:15.877Z,30.90
2018-01-19T17:09:43.464Z,30.00
2018-01-19T17:12:10.858Z,26.98
2018-01-19T17:14:38.457Z,25.95
2018-01-19T17:17:05.897Z,25.45
2018-01-19T17:19:33.446Z,23.23
2018-01-19T17:22:00.892Z,23.05
2018-01-19T17:24:28.333Z,24.15
2018-01-19T17:26:55.770Z,23.42
2018-01-19T17:29:23.222Z,22.90
2018-01-19T17:31:50.697Z,22.70
2018-01-19T17:34:18.203Z,23.45
2018-01-19T17:36:45.735Z,22.90
2018-01-19T17:39:13.215Z,26.42
2018-01-19T17:41:40.786Z,24.98
2018-01-19T17:44:09.002Z,23.02
2018-01-19T17:46:36.485Z,21.33
2018-01-19T17:49:03.922Z,21.87
2018-01-19T17:51:31.371Z,23.67
2018-01-19T17:53:58.813Z,23.12
2018-01-19T17:56:26.269Z,22.73
2018-01-19T17:58:53.878Z,20.45
2018-01-19T18:01:21.335Z,23.20
2018-01-19T18:03:48.858Z,22.42
2018-01-19T18:06:16.347Z,23.02
2018-01-19T18:08:43.878Z,21.52
2018-01-19T18:11:11.314Z,21.92
2018-01-19T18:13:38.756Z,21.98
2018-01-19T18:16:07.031Z,22.00
2018-01-19T18:18:34.450Z,22.70
2018-01-19T18:21:01.905Z,21.50
2018-01-19T18:23:29.366Z,22.03
2018-01-19T18:25:56.801Z,22.07
2018-01-19T18:28:24.267Z,21.67
2018-01-19T18:30:51.715Z,20.77
2018-01-19T18:33:19.193Z,22.15
2018-01-19T18:35:46.641Z,21.73
2018-01-19T18:38:14.091Z,20.20
2018-01-19T18:40:41.543Z,20.58
2018-01-19T18:43:08.982Z,23.00
2018-01-19T18:45:36.456Z,20.60
2018-01-19T18:48:03.933Z,22.65
2018-01-19T18:50:31.376Z,19.73
2018-01-19T18:52:58.821Z,23.38
2018-01-19T18:55:26.250Z,20.98
2018-01-19T18:57:53.688Z,23.70
2018-01-19T19:00:21.887Z,19.05
2018-01-19T19:02:49.367Z,21.05
2018-01-19T19:05:16.807Z,22.13
2018-01-19T19:07:44.241Z,23.33
2018-01-19T19:10:11.738Z,23.10
2018-01-19T19:12:39.216Z,22.87
2018-01-19T19:15:06.669Z,24.40
2018-01-19T19:17:34.128Z,23.40
2018-01-19T19:20:01.560Z,22.40
2018-01-19T19:22:28.998Z,22.50
2018-01-19T19:24:56.462Z,25.52
2018-01-19T19:27:23.898Z,25.88
2018-01-19T19:29:51.384Z,28.55
2018-01-19T19:32:18.818Z,32.83
2018-01-19T19:34:46.293Z,24.08
2018-01-19T19:37:13.942Z,25.23
2018-01-19T19:39:41.354Z,24.48
2018-01-19T19:42:09.582Z,21.77
2018-01-19T19:44:37.169Z,23.25
2018-01-19T19:47:04.613Z,23.02
2018-01-19T19:49:32.062Z,24.17
2018-01-19T19:51:59.557Z,23.30
2018-01-19T19:54:26.998Z,23.73
2018-01-19T19:56:54.451Z,22.37
2018-01-19T19:59:21.878Z,23.30
2018-01-19T20:01:49.320Z,25.33
2018-01-19T20:04:16.769Z,23.05
2018-01-19T20:06:44.279Z,25.27
2018-01-19T20:09:11.826Z,21.67
2018-01-19T20:11:39.399Z,22.45
2018-01-19T20:14:06.861Z,22.42
2018-01-19T20:16:34.282Z,22.33
2018-01-19T20:19:01.766Z,20.55
2018-01-19T20:21:29.300Z,20.30
2018-01-19T20:23:56.742Z,20.12
2018-01-19T20:26:24.172Z,18.58
2018-01-19T20:28:51.661Z,17.62
2018-01-19T20:31:19.092Z,18.50
2018-01-19T20:33:46.540Z,16.40
2018-01-19T20:36:13.981Z,15.93
2018-01-19T20:38:42.325Z,13.80
2018-01-19T20:41:09.816Z,14.40
2018-01-19T20:43:38.021Z,13.95
2018-01-19T20:46:05.445Z,13.40
2018-01-19T20:48:33.678Z,15.00
2018-01-19T20:51:01.213Z,13.35
2018-01-19T20:53:28.665Z,16.02
2018-01-19T20:55:56.097Z,15.32
2018-01-19T20:58:24.303Z,15.35
2018-01-19T21:00:51.760Z,17.02
2018-01-19T21:03:19.197Z,20.37
2018-01-19T21:05:46.639Z,23.00
2018-01-19T21:08:14.870Z,20.70
2018-01-19T21:10:42.305Z,21.08
2018-01-19T21:13:09.784Z,21.05
2018-01-19T21:15:37.325Z,23.73
2018-01-19T21:18:04.750Z,23.17
2018-01-19T21:20:32.948Z,23.50
2018-01-19T21:23:00.382Z,23.80
2018-01-19T21:25:28.586Z,24.80
2018-01-19T21:27:56.022Z,25.27
2018-01-19T21:30:23.465Z,27.33
2018-01-19T21:32:51.694Z,26.30
2018-01-19T21:35:19.144Z,25.50
2018-01-19T21:37:46.585Z,26.92
2018-01-19T21:40:14.023Z,27.55
2018-01-19T21:42:41.471Z,27.60
2018-01-19T21:45:08.913Z,28.20
2018-01-19T21:47:37.122Z,27.77
2018-01-19T21:50:04.550Z,28.10
2018-01-19T21:52:32.749Z,30.75
2018-01-19T21:55:00.178Z,30.00
2018-01-19T21:57:28.485Z,28.90
2018-01-19T21:59:55.957Z,31.40
2018-01-19T22:02:23.396Z,31.37
2018-01-19T22:04:50.837Z,32.83
2018-01-19T22:07:18.288Z,34.88
2018-01-19T22:09:45.745Z,29.73
2018-01-19T22:12:13.201Z,30.80
2018-01-19T22:14:40.646Z,30.25
2018-01-19T22:17:08.252Z,33.03
2018-01-19T22:19:35.809Z,33.38
2018-01-19T22:22:03.361Z,31.60
2018-01-19T22:24:30.833Z,32.42
2018-01-19T22:26:58.279Z,28.87
2018-01-19T22:29:25.713Z,32.28
2018-01-19T22:31:53.168Z,31.23
2018-01-19T22:34:20.774Z,29.77
2018-01-19T22:36:48.197Z,30.85
2018-01-19T22:39:15.655Z,30.08
2018-01-19T22:41:43.078Z,33.03
2018-01-19T22:44:11.384Z,32.92
2018-01-19T22:46:38.795Z,31.52
2018-01-19T22:49:06.238Z,36.33
2018-01-19T22:51:33.754Z,34.60
2018-01-19T22:54:01.229Z,31.75
2018-01-19T22:56:28.699Z,32.92
2018-01-19T22:58:56.137Z,30.83
2018-01-19T23:01:23.579Z,32.08
2018-01-19T23:03:51.117Z,29.60
2018-01-19T23:06:19.321Z,29.27
2018-01-19T23:08:46.762Z,32.95
2018-01-19T23:11:14.267Z,28.10
2018-01-19T23:13:41.705Z,26.98
2018-01-19T23:16:09.130Z,30.30
2018-01-19T23:18:36.567Z,28.02
2018-01-19T23:21:04.789Z,28.60
2018-01-19T23:23:32.243Z,27.00
2018-01-19T23:25:59.789Z,30.50
2018-01-19T23:28:27.213Z,28.40
2018-01-19T23:30:54.698Z,27.48
2018-01-19T23:33:22.109Z,27.00
2018-01-19T23:35:50.314Z,27.15
2018-01-19T23:38:17.802Z,25.67
2018-01-19T23:40:45.260Z,27.48
2018-01-19T23:43:12.698Z,28.25
2018-01-19T23:45:40.125Z,25.33
2018-01-19T23:48:08.331Z,28.23
2018-01-19T23:50:35.802Z,27.00
2018-01-19T23:53:03.246Z,26.62
2018-01-19T23:55:30.670Z,27.30
2018-01-19T23:57:58.165Z,25.55
